createdAt,value
2022-09-11T00:01:00.293Z,96758.22
2022-09-11T00:03:28.283Z,96753.56
2022-09-11T00:05:54.818Z,96747.88
2022-09-11T00:08:21.966Z,96749.81
2022-09-11T00:10:48.759Z,96747.84
2022-09-11T00:13:21.630Z,96744.81
2022-09-11T00:15:50.864Z,96756.81
2022-09-11T00:18:24.099Z,96754.78
2022-09-11T00:20:53.746Z,96757.63
2022-09-11T00:23:22.222Z,96747.66
2022-09-11T00:25:49.306Z,96751.53
2022-09-11T00:28:19.855Z,96745.66
2022-09-11T00:30:48.547Z,96743.41
2022-09-11T00:33:16.119Z,96742.56
2022-09-11T00:35:42.685Z,96743.78
2022-09-11T00:38:10.585Z,96737.28
2022-09-11T00:40:46.570Z,96738.31
2022-09-11T00:43:17.792Z,96735.84
2022-09-11T00:45:48.194Z,96746.22
2022-09-11T00:48:20.427Z,96730.78
2022-09-11T00:50:48.337Z,96737.09
2022-09-11T00:53:17.860Z,96729.97
2022-09-11T00:55:50.738Z,96728.13
2022-09-11T00:58:23.902Z,96725.47
2022-09-11T01:00:53.988Z,96729.16
2022-09-11T01:03:20.815Z,96724.69
2022-09-11T01:05:48.329Z,96726.09
2022-09-11T01:08:15.250Z,96718.97
2022-09-11T01:10:50.716Z,96722.25
2022-09-11T01:13:38.982Z,96718.75
2022-09-11T01:16:23.609Z,96713.09
2022-09-11T01:19:05.492Z,96714.91
2022-09-11T01:21:40.881Z,96716.13
2022-09-11T01:24:35.183Z,96721.03
2022-09-11T01:27:28.124Z,96718.56
2022-09-11T01:30:00.736Z,96708.81
2022-09-11T01:32:47.869Z,96720.19
2022-09-11T01:35:41.738Z,96709.63
2022-09-11T01:38:46.326Z,96724.47
2022-09-11T01:41:21.813Z,96721.84
2022-09-11T01:44:04.246Z,96715.09
2022-09-11T01:46:36.543Z,96716.56
2022-09-11T01:49:33.137Z,96717.97
2022-09-11T01:52:03.423Z,96718.56
2022-09-11T01:54:34.568Z,96718.16
2022-09-11T01:57:09.725Z,96719.41
2022-09-11T01:59:52.726Z,96712.69
2022-09-11T02:02:25.073Z,96713.91
2022-09-11T02:05:03.286Z,96714.50
2022-09-11T02:07:42.605Z,96697.84
2022-09-11T02:10:18.175Z,96706.38
2022-09-11T02:12:51.963Z,96697.59
2022-09-11T02:15:19.355Z,96697.22
2022-09-11T02:18:01.949Z,96703.53
2022-09-11T02:20:29.907Z,96697.84
2022-09-11T02:22:57.301Z,96698.44
2022-09-11T02:25:24.013Z,96705.16
2022-09-11T02:27:50.627Z,96697.00
2022-09-11T02:30:17.252Z,96695.78
2022-09-11T02:32:44.799Z,96702.47
2022-09-11T02:35:12.149Z,96694.56
2022-09-11T02:38:31.151Z,96699.03
2022-09-11T02:41:12.293Z,96696.41
2022-09-11T02:43:58.646Z,96702.06
2022-09-11T02:46:44.114Z,96699.84
2022-09-11T02:49:28.524Z,96695.72
2022-09-11T02:52:18.429Z,96690.84
2022-09-11T02:55:04.262Z,96693.53
2022-09-11T02:57:33.132Z,96701.91
2022-09-11T03:00:02.762Z,96695.78
2022-09-11T03:02:31.008Z,96699.25
2022-09-11T03:04:58.087Z,96693.72
2022-09-11T03:07:25.683Z,96694.94
2022-09-11T03:09:53.147Z,96693.75
2022-09-11T03:12:20.123Z,96696.56
2022-09-11T03:14:46.705Z,96698.03
2022-09-11T03:17:13.504Z,96695.41
2022-09-11T03:19:40.284Z,96693.34
2022-09-11T03:22:06.954Z,96696.63
2022-09-11T03:24:33.518Z,96703.72
2022-09-11T03:27:00.125Z,96705.97
2022-09-11T03:29:26.670Z,96694.53
2022-09-11T03:31:53.454Z,96694.31
2022-09-11T03:34:20.157Z,96702.25
2022-09-11T03:36:48.179Z,96702.84
2022-09-11T03:39:14.871Z,96695.75
2022-09-11T03:41:41.532Z,96697.41
2022-09-11T03:44:08.229Z,96697.00
2022-09-11T03:46:35.100Z,96696.41
2022-09-11T03:49:02.475Z,96695.72
2022-09-11T03:51:29.128Z,96703.88
2022-09-11T03:53:55.733Z,96696.75
2022-09-11T03:56:22.384Z,96702.50
2022-09-11T03:58:49.051Z,96701.91
2022-09-11T04:01:19.130Z,96699.03
2022-09-11T04:03:45.934Z,96698.25
2022-09-11T04:06:12.554Z,96700.69
2022-09-11T04:08:41.306Z,96698.63
2022-09-11T04:11:08.440Z,96694.19
2022-09-11T04:13:36.912Z,96704.31
2022-09-11T04:16:15.765Z,96709.63
2022-09-11T04:18:44.320Z,96703.53
2022-09-11T04:21:13.279Z,96703.09
2022-09-11T04:23:41.078Z,96703.09
2022-09-11T04:26:19.487Z,96701.88
2022-09-11T04:28:46.194Z,96703.53
2022-09-11T04:31:13.990Z,96705.53
2022-09-11T04:33:41.057Z,96708.81
2022-09-11T04:36:10.137Z,96711.47
2022-09-11T04:38:38.304Z,96710.00
2022-09-11T04:41:06.485Z,96708.38
2022-09-11T04:43:37.402Z,96717.94
2022-09-11T04:46:13.106Z,96719.59
2022-09-11T04:48:51.746Z,96723.06
2022-09-11T04:51:22.755Z,96724.47
2022-09-11T04:53:52.942Z,96728.72
2022-09-11T04:56:21.245Z,96723.25
2022-09-11T04:58:55.159Z,96716.13
2022-09-11T05:01:23.403Z,96727.53
2022-09-11T05:03:49.965Z,96733.22
2022-09-11T05:06:16.793Z,96730.19
2022-09-11T05:08:45.113Z,96735.03
2022-09-11T05:11:13.766Z,96732.19
2022-09-11T05:13:41.356Z,96734.25
2022-09-11T05:16:10.987Z,96738.50
2022-09-11T05:18:40.122Z,96728.31
2022-09-11T05:21:14.850Z,96737.72
2022-09-11T05:23:42.818Z,96751.13
2022-09-11T05:26:21.606Z,96752.75
2022-09-11T05:28:53.151Z,96749.91
2022-09-11T05:31:19.786Z,96749.50
2022-09-11T05:33:46.800Z,96746.84
2022-09-11T05:36:15.240Z,96754.59
2022-09-11T05:38:42.934Z,96763.34
2022-09-11T05:41:11.645Z,96770.66
2022-09-11T05:43:39.267Z,96761.09
2022-09-11T05:46:07.261Z,96772.28
2022-09-11T05:48:36.825Z,96775.94
2022-09-11T05:51:10.645Z,96780.00
2022-09-11T05:53:38.055Z,96782.84
2022-09-11T05:56:19.851Z,96786.31
2022-09-11T05:58:47.204Z,96785.69
2022-09-11T06:01:16.491Z,96787.09
2022-09-11T06:03:43.910Z,96787.72
2022-09-11T06:06:12.602Z,96797.47
2022-09-11T06:08:42.773Z,96799.13
2022-09-11T06:11:09.510Z,96803.59
2022-09-11T06:13:41.636Z,96809.50
2022-09-11T06:16:17.403Z,96811.16
2022-09-11T06:18:48.809Z,96806.84
2022-09-11T06:21:20.063Z,96811.94
2022-09-11T06:23:48.549Z,96817.66
2022-09-11T06:26:18.341Z,96822.16
2022-09-11T06:28:44.946Z,96822.56
2022-09-11T06:31:18.199Z,96820.72
2022-09-11T06:33:46.509Z,96822.34
2022-09-11T06:36:18.822Z,96823.53
2022-09-11T06:38:46.764Z,96819.47
2022-09-11T06:41:15.415Z,96823.75
2022-09-11T06:43:43.017Z,96829.22
2022-09-11T06:46:14.871Z,96823.66
2022-09-11T06:48:46.182Z,96823.41
2022-09-11T06:51:15.651Z,96827.25
2022-09-11T06:53:42.789Z,96836.22
2022-09-11T06:56:17.715Z,96834.41
2022-09-11T06:58:45.320Z,96836.47
2022-09-11T07:01:17.371Z,96835.28
2022-09-11T07:03:53.234Z,96840.88
2022-09-11T07:06:25.364Z,96852.59
2022-09-11T07:08:57.019Z,96849.00
2022-09-11T07:11:23.529Z,96850.28
2022-09-11T07:13:50.125Z,96855.28
2022-09-11T07:16:16.948Z,96859.63
2022-09-11T07:18:45.356Z,96865.03
2022-09-11T07:21:23.009Z,96860.09
2022-09-11T07:23:54.761Z,96861.94
2022-09-11T07:26:25.389Z,96874.38
2022-09-11T07:28:52.748Z,96869.91
2022-09-11T07:31:21.777Z,96877.25
2022-09-11T07:33:50.077Z,96877.66
2022-09-11T07:36:25.154Z,96879.06
2022-09-11T07:38:52.306Z,96889.47
2022-09-11T07:41:21.344Z,96891.09
2022-09-11T07:43:52.591Z,96893.38
2022-09-11T07:46:19.394Z,96902.50
2022-09-11T07:48:45.943Z,96900.47
2022-09-11T07:51:15.076Z,96890.44
2022-09-11T07:53:43.115Z,96889.75
2022-09-11T07:56:12.203Z,96895.41
2022-09-11T07:58:40.897Z,96900.81
2022-09-11T08:01:10.636Z,96908.38
2022-09-11T08:03:37.844Z,96906.41
2022-09-11T08:06:10.645Z,96908.09
2022-09-11T08:08:38.411Z,96913.69
2022-09-11T08:11:16.364Z,96917.13
2022-09-11T08:13:47.149Z,96919.09
2022-09-11T08:16:13.754Z,96926.59
2022-09-11T08:18:40.320Z,96929.34
2022-09-11T08:21:12.748Z,96941.41
2022-09-11T08:23:41.938Z,96940.97
2022-09-11T08:26:15.288Z,96945.19
2022-09-11T08:28:45.660Z,96945.78
2022-09-11T08:31:13.250Z,96952.53
2022-09-11T08:33:40.645Z,96946.59
2022-09-11T08:36:09.817Z,96950.81
2022-09-11T08:38:37.518Z,96953.38
2022-09-11T08:41:22.344Z,96956.16
2022-09-11T08:43:53.074Z,96959.19
2022-09-11T08:46:23.769Z,96959.56
2022-09-11T08:48:59.625Z,96959.34
2022-09-11T08:51:26.322Z,96967.25
2022-09-11T08:53:57.044Z,96964.06
2022-09-11T08:56:24.849Z,96963.34
2022-09-11T08:59:09.618Z,96959.09
2022-09-11T09:01:47.159Z,96969.53
2022-09-11T09:04:35.433Z,96972.25
2022-09-11T09:07:20.084Z,96976.53
2022-09-11T09:09:46.603Z,96975.81
2022-09-11T09:12:22.792Z,96976.84
2022-09-11T09:15:14.594Z,96982.16
2022-09-11T09:17:41.534Z,96988.22
2022-09-11T09:20:17.764Z,96986.56
2022-09-11T09:22:56.789Z,96994.47
2022-09-11T09:25:26.622Z,96987.94
2022-09-11T09:28:06.681Z,96991.56
2022-09-11T09:30:46.779Z,96987.56
2022-09-11T09:33:27.604Z,96983.41
2022-09-11T09:35:58.085Z,96992.81
2022-09-11T09:38:30.078Z,96990.13
2022-09-11T09:41:31.263Z,96994.00
2022-09-11T09:44:05.029Z,97002.19
2022-09-11T09:46:42.542Z,96995.41
2022-09-11T09:49:17.453Z,96996.44
2022-09-11T09:51:44.131Z,97001.88
2022-09-11T09:54:16.886Z,97002.34
2022-09-11T09:56:53.298Z,97004.28
2022-09-11T09:59:33.199Z,96999.31
2022-09-11T10:02:03.231Z,97004.16
2022-09-11T10:04:31.353Z,96996.06
2022-09-11T10:07:22.297Z,97004.19
2022-09-11T10:09:55.441Z,97007.56
2022-09-11T10:12:28.209Z,96998.13
2022-09-11T10:14:59.353Z,96998.88
2022-09-11T10:17:29.419Z,96998.75
2022-09-11T10:20:23.221Z,97000.16
2022-09-11T10:22:51.073Z,96997.84
2022-09-11T10:25:26.570Z,96992.66
2022-09-11T10:28:15.166Z,96994.81
2022-09-11T10:30:46.457Z,96998.09
2022-09-11T10:33:31.234Z,96995.53
2022-09-11T10:36:00.470Z,96994.81
2022-09-11T10:38:36.947Z,96999.66
2022-09-11T10:41:08.513Z,96991.78
2022-09-11T10:43:56.599Z,96991.22
2022-09-11T10:46:39.631Z,96993.22
2022-09-11T10:49:06.215Z,96992.72
2022-09-11T10:51:38.494Z,96994.16
2022-09-11T10:54:20.288Z,96984.66
2022-09-11T10:57:16.877Z,96994.84
2022-09-11T10:59:56.042Z,96995.84
2022-09-11T11:02:41.021Z,97002.34
2022-09-11T11:05:19.854Z,96997.94
2022-09-11T11:08:08.493Z,97005.97
2022-09-11T11:11:03.824Z,97005.94
2022-09-11T11:14:07.960Z,97009.16
2022-09-11T11:16:56.274Z,97008.28
2022-09-11T11:19:30.485Z,97017.22
2022-09-11T11:22:34.543Z,97012.34
2022-09-11T11:25:30.140Z,97005.63
2022-09-11T11:28:00.561Z,97012.91
2022-09-11T11:30:38.387Z,97022.25
2022-09-11T11:33:33.718Z,97017.78
2022-09-11T11:36:10.630Z,97025.63
2022-09-11T11:38:51.157Z,97021.16
2022-09-11T11:41:23.830Z,97015.56
2022-09-11T11:43:52.989Z,97025.66
2022-09-11T11:46:40.750Z,97031.75
2022-09-11T11:49:16.336Z,97025.59
2022-09-11T11:52:13.170Z,97034.75
2022-09-11T11:54:49.583Z,97033.22
2022-09-11T11:57:24.179Z,97037.16
2022-09-11T12:00:10.601Z,97034.16
2022-09-11T12:02:53.283Z,97042.94
2022-09-11T12:05:24.460Z,97048.56
2022-09-11T12:07:51.820Z,97051.91
2022-09-11T12:10:22.283Z,97048.19
2022-09-11T12:12:55.783Z,97047.94
2022-09-11T12:15:35.689Z,97045.66
2022-09-11T12:18:07.027Z,97043.44
2022-09-11T12:20:35.097Z,97050.50
2022-09-11T12:23:02.255Z,97046.09
2022-09-11T12:25:28.718Z,97048.56
2022-09-11T12:28:20.338Z,97046.91
2022-09-11T12:31:02.360Z,97042.28
2022-09-11T12:33:52.614Z,97042.16
2022-09-11T12:36:24.563Z,97042.50
2022-09-11T12:38:59.196Z,97035.66
2022-09-11T12:41:30.361Z,97042.72
2022-09-11T12:43:57.682Z,97034.94
2022-09-11T12:46:25.296Z,97039.59
2022-09-11T12:49:21.444Z,97045.63
2022-09-11T12:51:55.252Z,97044.59
2022-09-11T12:54:27.529Z,97047.72
2022-09-11T12:57:07.781Z,97051.56
2022-09-11T12:59:43.870Z,97048.19
2022-09-11T13:02:36.314Z,97055.91
2022-09-11T13:05:06.163Z,97056.34
2022-09-11T13:07:53.381Z,97052.41
2022-09-11T13:10:33.559Z,97048.59
2022-09-11T13:13:02.644Z,97055.94
2022-09-11T13:15:42.193Z,97048.47
2022-09-11T13:18:37.924Z,97044.81
2022-09-11T13:21:10.654Z,97049.56
2022-09-11T13:23:37.730Z,97040.66
2022-09-11T13:26:08.007Z,97034.03
2022-09-11T13:28:46.960Z,97042.03
2022-09-11T13:31:20.043Z,97039.94
2022-09-11T13:33:50.438Z,97040.53
2022-09-11T13:36:21.061Z,97038.69
2022-09-11T13:38:56.079Z,97039.00
2022-09-11T13:41:44.430Z,97039.38
2022-09-11T13:44:27.949Z,97038.34
2022-09-11T13:46:55.762Z,97033.81
2022-09-11T13:49:33.270Z,97030.22
2022-09-11T13:52:00.116Z,97029.06
2022-09-11T13:54:30.979Z,97038.44
2022-09-11T13:56:57.548Z,97031.16
2022-09-11T13:59:38.416Z,97038.09
2022-09-11T14:02:34.824Z,97033.34
2022-09-11T14:05:07.751Z,97031.13
2022-09-11T14:07:45.589Z,97030.66
2022-09-11T14:10:21.416Z,97031.50
2022-09-11T14:13:02.619Z,97042.72
2022-09-11T14:15:37.999Z,97033.34
2022-09-11T14:18:06.819Z,97035.66
2022-09-11T14:20:35.964Z,97024.97
2022-09-11T14:23:05.858Z,97025.09
2022-09-11T14:25:34.121Z,97028.22
2022-09-11T14:28:00.718Z,97026.16
2022-09-11T14:30:37.522Z,97033.84
2022-09-11T14:33:15.027Z,97035.47
2022-09-11T14:35:43.934Z,97037.31
2022-09-11T14:38:12.918Z,97026.50
2022-09-11T14:40:48.618Z,97037.63
2022-09-11T14:43:17.604Z,97022.66
2022-09-11T14:45:45.764Z,97035.06
2022-09-11T14:48:14.557Z,97028.34
2022-09-11T14:50:41.718Z,97022.22
2022-09-11T14:53:24.150Z,97019.56
2022-09-11T14:55:51.377Z,97021.09
2022-09-11T14:58:18.041Z,97022.53
2022-09-11T15:00:45.286Z,97017.03
2022-09-11T15:03:11.962Z,97014.53
2022-09-11T15:05:38.960Z,97017.44
2022-09-11T15:08:05.703Z,97014.88
2022-09-11T15:10:33.200Z,97019.06
2022-09-11T15:12:59.849Z,97020.81
2022-09-11T15:15:27.765Z,97010.38
2022-09-11T15:17:55.239Z,97024.13
2022-09-11T15:20:24.428Z,97021.72
2022-09-11T15:22:53.662Z,97022.78
2022-09-11T15:25:20.268Z,97024.88
2022-09-11T15:27:50.591Z,97030.53
2022-09-11T15:30:18.529Z,97029.25
2022-09-11T15:32:45.279Z,97023.00
2022-09-11T15:35:12.763Z,97022.44
2022-09-11T15:37:40.149Z,97024.28
2022-09-11T15:40:07.186Z,97025.94
2022-09-11T15:42:39.392Z,97019.56
2022-09-11T15:45:08.215Z,97020.34
2022-09-11T15:47:34.736Z,97012.94
2022-09-11T15:50:01.920Z,97019.88
2022-09-11T15:52:29.498Z,97013.38
2022-09-11T15:54:56.773Z,97018.50
2022-09-11T15:57:23.421Z,97015.69
2022-09-11T15:59:51.857Z,97019.50
2022-09-11T16:02:20.593Z,97009.53
2022-09-11T16:04:51.597Z,97009.69
2022-09-11T16:07:20.096Z,97009.22
2022-09-11T16:09:46.702Z,97021.16
2022-09-11T16:12:15.763Z,97016.28
2022-09-11T16:14:42.611Z,97015.56
2022-09-11T16:17:09.268Z,97008.16
2022-09-11T16:19:36.591Z,97018.50
2022-09-11T16:22:05.154Z,97008.88
2022-09-11T16:24:37.491Z,97017.44
2022-09-11T16:27:09.569Z,97018.84
2022-09-11T16:30:25.885Z,97013.88
2022-09-11T16:32:31.845Z,97018.72
2022-09-11T16:34:59.645Z,97024.88
2022-09-11T16:37:26.665Z,97024.41
2022-09-11T16:39:53.469Z,97024.06
2022-09-11T16:42:21.274Z,97027.84
2022-09-11T16:44:49.164Z,97019.34
2022-09-11T16:47:16.658Z,97019.16
2022-09-11T16:50:06.108Z,97026.09
2022-09-11T16:52:32.642Z,97034.97
2022-09-11T16:54:59.569Z,97038.63
2022-09-11T16:57:27.442Z,97036.06
2022-09-11T16:59:54.092Z,97039.25
2022-09-11T17:02:20.653Z,97040.72
2022-09-11T17:04:47.311Z,97051.69
2022-09-11T17:07:14.860Z,97049.22
2022-09-11T17:09:43.522Z,97048.63
2022-09-11T17:12:11.032Z,97045.16
2022-09-11T17:14:38.089Z,97043.81
2022-09-11T17:17:04.926Z,97031.22
2022-09-11T17:19:31.535Z,97043.72
2022-09-11T17:21:58.251Z,97042.97
2022-09-11T17:24:24.762Z,97038.59
2022-09-11T17:26:51.342Z,97037.72
2022-09-11T17:29:19.521Z,97040.06
2022-09-11T17:31:46.542Z,97042.72
2022-09-11T17:34:14.186Z,97037.09
2022-09-11T17:36:41.202Z,97047.38
2022-09-11T17:39:07.752Z,97045.75
2022-09-11T17:41:34.345Z,97049.34
2022-09-11T17:44:00.913Z,97044.13
2022-09-11T17:46:28.315Z,97040.50
2022-09-11T17:48:55.440Z,97052.81
2022-09-11T17:51:25.134Z,97042.78
2022-09-11T17:53:57.223Z,97043.75
2022-09-11T17:56:26.303Z,97043.88
2022-09-11T17:58:55.306Z,97049.41
2022-09-11T18:01:22.836Z,97049.03
2022-09-11T18:03:51.434Z,97049.19
2022-09-11T18:06:39.059Z,97039.94
2022-09-11T18:09:19.664Z,97042.81
2022-09-11T18:11:48.252Z,97043.38
2022-09-11T18:14:15.966Z,97051.34
2022-09-11T18:16:45.277Z,97059.78
2022-09-11T18:19:12.398Z,97059.00
2022-09-11T18:21:39.170Z,97055.03
2022-09-11T18:24:09.766Z,97057.63
2022-09-11T18:26:39.472Z,97056.22
2022-09-11T18:29:10.011Z,97058.34
2022-09-11T18:31:42.096Z,97052.56
2022-09-11T18:34:15.195Z,97059.63
2022-09-11T18:36:42.512Z,97052.56
2022-09-11T18:39:11.057Z,97064.66
2022-09-11T18:41:37.758Z,97061.00
2022-09-11T18:44:08.481Z,97074.09
2022-09-11T18:46:37.395Z,97070.41
2022-09-11T18:49:04.957Z,97069.03
2022-09-11T18:51:31.721Z,97075.56
2022-09-11T18:53:59.525Z,97070.63
2022-09-11T18:56:29.454Z,97069.38
2022-09-11T18:58:56.434Z,97063.06
2022-09-11T19:01:27.077Z,97079.38
2022-09-11T19:03:53.901Z,97087.00
2022-09-11T19:06:25.141Z,97090.63
2022-09-11T19:08:53.841Z,97077.81
2022-09-11T19:11:23.309Z,97091.28
2022-09-11T19:13:52.869Z,97087.03
2022-09-11T19:16:21.371Z,97091.31
2022-09-11T19:18:48.742Z,97082.75
2022-09-11T19:21:22.386Z,97088.66
2022-09-11T19:23:51.750Z,97093.56
2022-09-11T19:26:24.402Z,97091.13
2022-09-11T19:28:52.352Z,97084.00
2022-09-11T19:31:29.513Z,97091.31
2022-09-11T19:33:57.818Z,97098.03
2022-09-11T19:36:27.356Z,97096.41
2022-09-11T19:39:01.549Z,97091.56
2022-09-11T19:41:30.841Z,97100.69
2022-09-11T19:44:02.242Z,97102.75
2022-09-11T19:46:31.371Z,97101.91
2022-09-11T19:49:00.633Z,97107.22
2022-09-11T19:51:30.906Z,97109.47
2022-09-11T19:54:02.180Z,97101.94
2022-09-11T19:56:29.635Z,97106.03
2022-09-11T19:58:56.334Z,97106.63
2022-09-11T20:01:25.341Z,97105.19
2022-09-11T20:03:53.641Z,97098.25
2022-09-11T20:06:23.081Z,97111.72
2022-09-11T20:08:59.177Z,97109.25
2022-09-11T20:11:37.582Z,97108.22
2022-09-11T20:14:05.382Z,97102.31
2022-09-11T20:16:32.848Z,97110.88
2022-09-11T20:19:06.246Z,97109.31
2022-09-11T20:21:35.419Z,97110.31
2022-09-11T20:24:02.581Z,97107.50
2022-09-11T20:26:30.518Z,97099.75
2022-09-11T20:29:00.638Z,97107.25
2022-09-11T20:31:47.503Z,97105.34
2022-09-11T20:34:16.738Z,97111.91
2022-09-11T20:36:43.360Z,97103.00
2022-09-11T20:39:13.536Z,97106.25
2022-09-11T20:41:40.371Z,97109.47
2022-09-11T20:44:07.004Z,97111.75
2022-09-11T20:46:33.657Z,97117.41
2022-09-11T20:49:00.869Z,97104.34
2022-09-11T20:51:28.046Z,97122.88
2022-09-11T20:53:56.015Z,97116.78
2022-09-11T20:56:23.934Z,97119.16
2022-09-11T20:58:51.669Z,97118.25
2022-09-11T21:01:22.258Z,97122.34
2022-09-11T21:03:54.549Z,97120.78
2022-09-11T21:06:26.085Z,97113.88
2022-09-11T21:09:01.331Z,97108.94
2022-09-11T21:11:29.564Z,97117.09
2022-09-11T21:13:56.135Z,97112.03
2022-09-11T21:16:23.171Z,97104.94
2022-09-11T21:18:52.408Z,97112.44
2022-09-11T21:21:20.527Z,97106.13
2022-09-11T21:23:47.589Z,97111.63
2022-09-11T21:26:16.718Z,97106.56
2022-09-11T21:28:43.870Z,97112.94
2022-09-11T21:31:10.638Z,97109.06
2022-09-11T21:33:37.907Z,97101.13
2022-09-11T21:36:05.878Z,97103.91
2022-09-11T21:38:32.946Z,97109.66
2022-09-11T21:41:02.043Z,97101.34
2022-09-11T21:43:29.145Z,97106.03
2022-09-11T21:45:56.023Z,97106.19
2022-09-11T21:48:23.008Z,97108.50
2022-09-11T21:50:49.966Z,97111.34
2022-09-11T21:53:16.618Z,97109.38
2022-09-11T21:55:45.359Z,97107.31
2022-09-11T21:58:15.926Z,97106.66
2022-09-11T22:00:43.357Z,97105.63
2022-09-11T22:03:12.131Z,97089.56
2022-09-11T22:05:43.260Z,97097.84
2022-09-11T22:08:11.692Z,97093.69
2022-09-11T22:10:46.995Z,97095.19
2022-09-11T22:13:13.668Z,97095.84
2022-09-11T22:15:44.582Z,97096.06
2022-09-11T22:18:11.294Z,97097.09
2022-09-11T22:20:38.287Z,97093.50
2022-09-11T22:23:05.558Z,97094.22
2022-09-11T22:25:32.971Z,97091.13
2022-09-11T22:27:59.713Z,97092.81
2022-09-11T22:30:28.060Z,97090.69
2022-09-11T22:32:54.996Z,97096.34
2022-09-11T22:35:21.522Z,97099.00
2022-09-11T22:37:48.358Z,97101.63
2022-09-11T22:40:15.151Z,97094.41
2022-09-11T22:42:41.815Z,97102.53
2022-09-11T22:45:08.701Z,97100.97
2022-09-11T22:47:35.380Z,97097.50
2022-09-11T22:50:02.171Z,97097.19
2022-09-11T22:52:29.300Z,97096.75
2022-09-11T22:54:55.835Z,97088.81
2022-09-11T22:57:22.341Z,97102.16
2022-09-11T22:59:49.558Z,97097.13
2022-09-11T23:02:16.235Z,97095.69
2022-09-11T23:05:05.663Z,97095.88
2022-09-11T23:07:32.272Z,97100.66
2022-09-11T23:09:58.865Z,97109.03
2022-09-11T23:12:25.529Z,97100.66
2022-09-11T23:14:53.419Z,97096.06
2022-09-11T23:17:21.042Z,97094.69
2022-09-11T23:19:48.105Z,97098.53
2022-09-11T23:22:14.727Z,97102.03
2022-09-11T23:24:41.696Z,97096.34
2022-09-11T23:27:08.333Z,97102.81
2022-09-11T23:29:34.966Z,97096.66
2022-09-11T23:32:01.594Z,97094.28
2022-09-11T23:34:28.411Z,97092.94
2022-09-11T23:36:54.921Z,97103.84
2022-09-11T23:39:21.797Z,97095.47
2022-09-11T23:41:48.317Z,97092.31
2022-09-11T23:44:15.050Z,97090.03
2022-09-11T23:46:42.239Z,97082.38
2022-09-11T23:49:11.293Z,97081.75
2022-09-11T23:51:38.002Z,97075.13
2022-09-11T23:54:05.673Z,97081.16
2022-09-11T23:56:32.207Z,97077.22
2022-09-11T23:58:58.853Z,97076.31
